createdAt,value
2022-09-16T00:01:17.146Z,73.30
2022-09-16T00:03:44.172Z,73.60
2022-09-16T00:06:18.362Z,73.70
2022-09-16T00:08:45.782Z,73.80
2022-09-16T00:11:12.621Z,74.00
2022-09-16T00:13:39.745Z,74.00
2022-09-16T00:16:10.687Z,73.80
2022-09-16T00:18:37.598Z,73.80
2022-09-16T00:21:06.802Z,73.70
2022-09-16T00:23:33.691Z,73.90
2022-09-16T00:26:00.773Z,73.80
2022-09-16T00:28:28.782Z,73.80
2022-09-16T00:31:01.255Z,73.80
2022-09-16T00:33:28.626Z,73.70
2022-09-16T00:36:05.228Z,73.80
2022-09-16T00:38:32.389Z,73.90
2022-09-16T00:40:59.211Z,74.10
2022-09-16T00:43:26.094Z,74.30
2022-09-16T00:45:57.376Z,74.40
2022-09-16T00:48:24.737Z,74.40
2022-09-16T00:50:55.913Z,74.50
2022-09-16T00:53:28.008Z,74.40
2022-09-16T00:55:54.982Z,74.50
2022-09-16T00:58:23.912Z,74.50
2022-09-16T01:00:50.816Z,74.40
2022-09-16T01:03:18.016Z,74.40
2022-09-16T01:05:44.932Z,74.30
2022-09-16T01:08:12.362Z,74.30
2022-09-16T01:10:42.104Z,74.30
2022-09-16T01:13:09.701Z,74.10
2022-09-16T01:15:56.815Z,73.90
2022-09-16T01:18:27.617Z,73.80
2022-09-16T01:21:13.237Z,73.80
2022-09-16T01:23:46.180Z,73.90
2022-09-16T01:26:15.783Z,74.80
2022-09-16T01:29:01.624Z,75.20
2022-09-16T01:31:29.292Z,75.40
2022-09-16T01:34:12.974Z,75.70
2022-09-16T01:36:42.979Z,75.80
2022-09-16T01:39:09.931Z,76.10
2022-09-16T01:41:45.931Z,76.70
2022-09-16T01:44:12.774Z,77.30
2022-09-16T01:46:39.624Z,77.80
2022-09-16T01:49:25.547Z,78.10
2022-09-16T01:51:54.022Z,78.10
2022-09-16T01:54:34.873Z,77.80
2022-09-16T01:57:09.042Z,77.80
2022-09-16T01:59:49.133Z,77.60
2022-09-16T02:02:16.105Z,77.30
2022-09-16T02:04:45.224Z,77.10
2022-09-16T02:07:12.172Z,77.00
2022-09-16T02:09:42.643Z,77.00
2022-09-16T02:12:13.046Z,76.80
2022-09-16T02:14:41.312Z,77.00
2022-09-16T02:17:09.475Z,76.90
2022-09-16T02:19:36.308Z,76.90
2022-09-16T02:22:03.789Z,76.90
2022-09-16T02:24:31.129Z,76.90
2022-09-16T02:27:01.176Z,77.00
2022-09-16T02:29:29.219Z,77.10
2022-09-16T02:31:56.621Z,76.90
2022-09-16T02:34:27.956Z,77.00
2022-09-16T02:36:56.752Z,77.00
2022-09-16T02:39:25.793Z,77.00
2022-09-16T02:41:52.836Z,77.00
2022-09-16T02:44:19.712Z,76.70
2022-09-16T02:46:49.557Z,77.00
2022-09-16T02:49:19.227Z,77.50
2022-09-16T02:52:05.022Z,77.10
2022-09-16T02:54:31.835Z,77.40
2022-09-16T02:56:58.687Z,77.40
2022-09-16T02:59:25.576Z,77.20
2022-09-16T03:01:52.830Z,77.80
2022-09-16T03:04:19.873Z,77.20
2022-09-16T03:06:47.076Z,77.20
2022-09-16T03:09:14.259Z,77.40
2022-09-16T03:11:50.158Z,77.10
2022-09-16T03:14:16.955Z,77.00
2022-09-16T03:17:02.597Z,77.10
2022-09-16T03:19:32.519Z,77.40
2022-09-16T03:22:19.375Z,77.10
2022-09-16T03:24:51.082Z,77.10
2022-09-16T03:27:23.453Z,77.40
2022-09-16T03:29:54.220Z,77.50
2022-09-16T03:32:22.101Z,77.50
2022-09-16T03:34:52.507Z,77.80
2022-09-16T03:37:19.499Z,78.10
2022-09-16T03:39:50.482Z,78.00
2022-09-16T03:42:17.427Z,77.80
2022-09-16T03:44:44.334Z,77.70
2022-09-16T03:47:11.305Z,77.60
2022-09-16T03:49:40.584Z,77.90
2022-09-16T03:52:08.058Z,78.10
2022-09-16T03:54:35.317Z,78.30
2022-09-16T03:57:02.196Z,78.40
2022-09-16T03:59:29.406Z,78.30
2022-09-16T04:01:56.658Z,77.90
2022-09-16T04:04:23.543Z,78.10
2022-09-16T04:06:50.348Z,78.10
2022-09-16T04:09:17.364Z,78.00
2022-09-16T04:11:44.246Z,77.90
2022-09-16T04:14:11.224Z,78.00
2022-09-16T04:16:38.206Z,78.20
2022-09-16T04:19:05.219Z,78.40
2022-09-16T04:21:32.109Z,78.00
2022-09-16T04:23:59.034Z,78.10
2022-09-16T04:26:26.114Z,78.60
2022-09-16T04:28:54.627Z,78.90
2022-09-16T04:31:21.540Z,79.20
2022-09-16T04:33:48.557Z,79.30
2022-09-16T04:36:16.242Z,79.00
2022-09-16T04:38:43.896Z,78.90
2022-09-16T04:41:20.757Z,78.90
2022-09-16T04:43:50.498Z,78.70
2022-09-16T04:46:17.492Z,78.60
2022-09-16T04:48:46.850Z,79.00
2022-09-16T04:51:13.692Z,79.20
2022-09-16T04:53:40.752Z,79.20
2022-09-16T04:56:08.409Z,79.30
2022-09-16T04:58:35.556Z,79.10
2022-09-16T05:01:12.931Z,79.00
2022-09-16T05:04:00.507Z,79.20
2022-09-16T05:06:28.293Z,79.20
2022-09-16T05:08:55.526Z,79.20
2022-09-16T05:11:26.207Z,79.00
2022-09-16T05:13:53.438Z,79.50
2022-09-16T05:16:21.101Z,79.90
2022-09-16T05:18:48.876Z,80.00
2022-09-16T05:21:16.890Z,79.80
2022-09-16T05:23:46.900Z,79.80
2022-09-16T05:26:28.952Z,79.70
2022-09-16T05:28:55.858Z,79.50
2022-09-16T05:31:26.872Z,79.20
2022-09-16T05:33:57.905Z,79.00
2022-09-16T05:36:24.966Z,78.90
2022-09-16T05:39:18.105Z,78.80
2022-09-16T05:41:38.921Z,79.00
2022-09-16T05:44:06.953Z,78.80
2022-09-16T05:46:33.939Z,78.50
2022-09-16T05:49:00.877Z,78.10
2022-09-16T05:51:28.087Z,77.90
2022-09-16T05:53:54.997Z,77.80
2022-09-16T05:56:22.898Z,78.00
2022-09-16T05:58:51.276Z,78.20
2022-09-16T06:01:18.911Z,78.00
2022-09-16T06:03:46.680Z,79.10
2022-09-16T06:06:26.102Z,79.60
2022-09-16T06:09:19.752Z,79.70
2022-09-16T06:11:47.468Z,79.50
2022-09-16T06:14:14.412Z,79.50
2022-09-16T06:16:41.336Z,79.50
2022-09-16T06:19:10.722Z,79.10
2022-09-16T06:21:38.147Z,78.80
2022-09-16T06:24:09.093Z,78.90
2022-09-16T06:26:37.038Z,79.40
2022-09-16T06:29:04.712Z,79.60
2022-09-16T06:31:31.536Z,79.40
2022-09-16T06:33:58.524Z,79.60
2022-09-16T06:36:26.824Z,79.30
2022-09-16T06:38:53.666Z,79.10
2022-09-16T06:41:20.739Z,77.90
2022-09-16T06:43:47.839Z,78.20
2022-09-16T06:46:18.770Z,77.80
2022-09-16T06:48:46.517Z,77.30
2022-09-16T06:51:16.991Z,76.80
2022-09-16T06:53:43.977Z,75.40
2022-09-16T06:56:12.550Z,74.40
2022-09-16T06:58:41.405Z,74.30
2022-09-16T07:01:12.118Z,74.60
2022-09-16T07:03:39.714Z,73.70
2022-09-16T07:06:09.718Z,73.30
2022-09-16T07:08:36.678Z,73.40
2022-09-16T07:11:07.396Z,72.70
2022-09-16T07:13:34.448Z,71.90
2022-09-16T07:16:12.876Z,70.40
2022-09-16T07:18:40.576Z,69.00
2022-09-16T07:21:10.405Z,65.90
2022-09-16T07:23:37.410Z,64.70
2022-09-16T07:26:08.048Z,64.80
2022-09-16T07:28:35.155Z,65.80
2022-09-16T07:31:03.027Z,67.00
2022-09-16T07:33:35.680Z,68.40
2022-09-16T07:36:02.889Z,68.40
2022-09-16T07:38:29.848Z,69.10
2022-09-16T07:40:56.880Z,69.40
2022-09-16T07:43:23.942Z,70.40
2022-09-16T07:45:57.614Z,70.90
2022-09-16T07:48:24.499Z,71.70
2022-09-16T07:51:13.634Z,72.90
2022-09-16T07:53:42.830Z,73.20
2022-09-16T07:56:16.755Z,73.10
2022-09-16T07:58:45.136Z,73.00
2022-09-16T08:01:12.485Z,72.60
2022-09-16T08:03:39.733Z,72.70
2022-09-16T08:06:41.337Z,73.50
2022-09-16T08:09:37.643Z,73.80
2022-09-16T08:11:55.788Z,73.50
2022-09-16T08:14:22.736Z,73.20
2022-09-16T08:16:52.467Z,72.50
2022-09-16T08:19:20.716Z,72.00
2022-09-16T08:21:47.741Z,71.50
2022-09-16T08:24:26.884Z,71.00
2022-09-16T08:29:32.769Z,70.60
2022-09-16T08:31:59.902Z,70.60
2022-09-16T08:34:45.707Z,68.70
2022-09-16T08:37:18.429Z,64.70
2022-09-16T08:40:04.805Z,62.80
2022-09-16T08:42:35.480Z,60.50
2022-09-16T08:45:10.324Z,55.60
2022-09-16T08:47:42.830Z,52.70
2022-09-16T08:50:23.557Z,49.50
2022-09-16T08:52:52.959Z,46.30
2022-09-16T08:55:39.799Z,44.10
2022-09-16T08:58:07.479Z,40.60
2022-09-16T09:00:34.733Z,39.70
2022-09-16T09:03:10.792Z,39.10
2022-09-16T09:05:45.815Z,38.30
2022-09-16T09:08:22.804Z,38.20
2022-09-16T09:10:51.309Z,37.60
2022-09-16T09:13:38.078Z,38.40
2022-09-16T09:16:17.270Z,39.30
2022-09-16T09:18:47.529Z,37.80
2022-09-16T09:21:22.083Z,37.40
2022-09-16T09:23:58.871Z,40.20
2022-09-16T09:26:42.358Z,42.50
2022-09-16T09:29:12.751Z,44.50
2022-09-16T09:31:49.418Z,44.10
2022-09-16T09:34:31.775Z,42.90
2022-09-16T09:37:11.105Z,41.50
2022-09-16T09:39:58.369Z,41.60
2022-09-16T09:42:29.761Z,41.00
2022-09-16T09:45:15.094Z,42.60
2022-09-16T09:47:42.242Z,42.60
2022-09-16T09:50:14.054Z,40.90
2022-09-16T09:52:46.389Z,41.00
2022-09-16T09:55:16.314Z,40.80
2022-09-16T09:58:02.217Z,40.80
2022-09-16T10:00:29.349Z,43.10
2022-09-16T10:03:03.492Z,45.40
2022-09-16T10:05:30.630Z,47.80
2022-09-16T10:08:16.866Z,49.60
2022-09-16T10:10:57.538Z,50.20
2022-09-16T10:13:26.282Z,50.40
2022-09-16T10:15:55.748Z,50.90
2022-09-16T10:18:29.027Z,51.80
2022-09-16T10:21:02.563Z,52.50
2022-09-16T10:23:33.075Z,52.50
2022-09-16T10:26:20.699Z,52.60
2022-09-16T10:29:01.151Z,52.80
2022-09-16T10:31:34.963Z,53.20
2022-09-16T10:34:18.147Z,53.90
2022-09-16T10:37:00.526Z,54.00
2022-09-16T10:39:34.263Z,53.90
2022-09-16T10:42:02.631Z,54.70
2022-09-16T10:44:30.630Z,54.00
2022-09-16T10:46:58.802Z,53.20
2022-09-16T10:49:28.174Z,54.30
2022-09-16T10:51:55.230Z,54.60
2022-09-16T10:54:28.318Z,54.80
2022-09-16T10:56:59.906Z,54.40
2022-09-16T10:59:27.113Z,53.40
2022-09-16T11:01:54.697Z,50.60
2022-09-16T11:04:45.890Z,47.30
2022-09-16T11:07:26.193Z,44.00
2022-09-16T11:10:05.555Z,39.90
2022-09-16T11:12:35.689Z,37.40
2022-09-16T11:15:12.013Z,36.30
2022-09-16T11:17:41.953Z,36.00
2022-09-16T11:20:28.275Z,36.60
2022-09-16T11:22:55.352Z,36.00
2022-09-16T11:25:34.591Z,35.50
2022-09-16T11:28:20.545Z,36.10
2022-09-16T11:30:59.764Z,35.50
2022-09-16T11:33:54.807Z,33.90
2022-09-16T11:36:34.246Z,34.00
2022-09-16T11:39:09.599Z,36.50
2022-09-16T11:41:46.170Z,38.60
2022-09-16T11:44:24.719Z,40.20
2022-09-16T11:46:58.167Z,41.30
2022-09-16T11:49:57.231Z,38.90
2022-09-16T11:52:36.199Z,36.60
2022-09-16T11:55:23.972Z,35.40
2022-09-16T11:57:59.310Z,33.30
2022-09-16T12:00:26.525Z,33.20
2022-09-16T12:03:04.935Z,33.40
2022-09-16T12:05:35.586Z,33.60
2022-09-16T12:08:23.891Z,35.60
2022-09-16T12:11:27.313Z,37.60
2022-09-16T12:14:05.952Z,38.30
2022-09-16T12:16:51.900Z,37.10
2022-09-16T12:19:23.818Z,37.70
2022-09-16T12:22:10.983Z,36.90
2022-09-16T12:24:37.933Z,35.20
2022-09-16T12:27:13.664Z,34.90
2022-09-16T12:29:52.502Z,34.90
2022-09-16T12:32:22.247Z,36.10
2022-09-16T12:34:56.657Z,35.90
2022-09-16T12:37:34.062Z,34.80
2022-09-16T12:40:01.664Z,34.30
2022-09-16T12:42:37.897Z,34.90
2022-09-16T12:45:11.469Z,36.30
2022-09-16T12:47:41.105Z,37.80
2022-09-16T12:50:20.310Z,39.30
2022-09-16T12:52:50.244Z,41.00
2022-09-16T12:55:35.624Z,41.80
2022-09-16T12:58:05.432Z,43.10
2022-09-16T13:00:42.770Z,43.60
2022-09-16T13:03:29.831Z,42.40
2022-09-16T13:05:58.735Z,40.90
2022-09-16T13:08:30.182Z,41.30
2022-09-16T13:11:51.092Z,42.70
2022-09-16T13:13:56.147Z,44.10
2022-09-16T13:16:30.254Z,45.20
2022-09-16T13:19:18.758Z,46.60
2022-09-16T13:21:46.102Z,46.50
2022-09-16T13:24:35.251Z,44.60
2022-09-16T13:27:02.306Z,42.80
2022-09-16T13:29:38.023Z,40.50
2022-09-16T13:32:05.243Z,39.60
2022-09-16T13:34:32.156Z,38.70
2022-09-16T13:36:59.221Z,39.70
2022-09-16T13:39:30.510Z,39.80
2022-09-16T13:41:57.487Z,40.20
2022-09-16T13:44:45.802Z,39.30
2022-09-16T13:47:14.082Z,39.30
2022-09-16T13:49:46.936Z,41.60
2022-09-16T13:52:17.680Z,43.30
2022-09-16T13:57:45.673Z,47.00
2022-09-16T14:00:20.058Z,49.70
2022-09-16T14:02:53.092Z,49.50
2022-09-16T14:06:00.821Z,46.90
2022-09-16T14:08:28.207Z,45.80
2022-09-16T14:11:03.877Z,45.90
2022-09-16T14:13:44.010Z,45.20
2022-09-16T14:16:29.510Z,45.00
2022-09-16T14:19:23.104Z,44.60
2022-09-16T14:22:03.852Z,44.70
2022-09-16T14:24:34.822Z,45.00
2022-09-16T14:27:01.883Z,45.80
2022-09-16T14:29:28.844Z,46.30
2022-09-16T14:31:56.108Z,47.40
2022-09-16T14:34:29.778Z,48.20
2022-09-16T14:36:56.845Z,48.90
2022-09-16T14:39:24.283Z,49.70
2022-09-16T14:41:52.768Z,49.80
2022-09-16T14:44:19.986Z,50.20
2022-09-16T14:46:54.365Z,50.40
2022-09-16T14:49:27.551Z,50.50
2022-09-16T14:51:56.182Z,50.40
2022-09-16T14:54:24.010Z,50.60
2022-09-16T14:56:57.296Z,50.90
2022-09-16T14:59:42.612Z,51.20
2022-09-16T15:02:29.838Z,51.60
2022-09-16T15:05:02.315Z,51.90
2022-09-16T15:07:30.481Z,52.00
2022-09-16T15:10:01.985Z,52.70
2022-09-16T15:12:30.618Z,53.00
2022-09-16T15:14:57.740Z,53.40
2022-09-16T15:17:27.593Z,53.80
2022-09-16T15:19:56.041Z,54.20
2022-09-16T15:22:23.369Z,54.80
2022-09-16T15:24:53.469Z,55.40
2022-09-16T15:27:21.353Z,56.10
2022-09-16T15:29:49.724Z,56.30
2022-09-16T15:32:18.394Z,56.40
2022-09-16T15:34:46.080Z,56.40
2022-09-16T15:37:34.254Z,56.70
2022-09-16T15:40:20.965Z,57.10
2022-09-16T15:42:49.699Z,57.40
2022-09-16T15:45:18.123Z,57.60
2022-09-16T15:47:58.939Z,57.80
2022-09-16T15:50:26.246Z,57.70
2022-09-16T15:52:56.461Z,57.90
2022-09-16T15:55:28.788Z,57.90
2022-09-16T15:58:05.511Z,58.10
2022-09-16T16:00:52.530Z,58.30
2022-09-16T16:03:22.978Z,58.50
2022-09-16T16:05:51.282Z,58.60
2022-09-16T16:08:37.363Z,59.00
2022-09-16T16:11:11.121Z,59.60
2022-09-16T16:13:39.145Z,60.00
2022-09-16T16:16:06.274Z,60.00
2022-09-16T16:18:33.285Z,60.40
2022-09-16T16:21:01.974Z,60.50
2022-09-16T16:23:28.973Z,60.70
2022-09-16T16:25:55.845Z,60.90
2022-09-16T16:28:23.179Z,61.30
2022-09-16T16:30:50.238Z,61.50
2022-09-16T16:33:17.317Z,61.80
2022-09-16T16:35:44.299Z,61.90
2022-09-16T16:38:11.231Z,62.10
2022-09-16T16:40:38.219Z,62.60
2022-09-16T16:43:05.237Z,62.80
2022-09-16T16:45:32.132Z,63.10
2022-09-16T16:47:59.141Z,63.20
2022-09-16T16:50:26.253Z,63.40
2022-09-16T16:52:53.457Z,63.60
2022-09-16T16:55:20.410Z,63.70
2022-09-16T16:57:47.573Z,63.80
2022-09-16T17:00:15.114Z,64.00
2022-09-16T17:02:42.986Z,64.40
2022-09-16T17:05:10.022Z,64.40
2022-09-16T17:07:37.284Z,64.40
2022-09-16T17:10:04.558Z,64.60
2022-09-16T17:12:31.450Z,64.90
2022-09-16T17:14:58.644Z,65.10
2022-09-16T17:17:30.726Z,65.10
2022-09-16T17:19:58.765Z,65.60
2022-09-16T17:22:25.811Z,66.30
2022-09-16T17:24:52.744Z,66.00
2022-09-16T17:27:20.920Z,66.40
2022-09-16T17:29:47.893Z,66.40
2022-09-16T17:32:14.814Z,66.70
2022-09-16T17:34:41.772Z,66.80
2022-09-16T17:37:08.671Z,68.20
2022-09-16T17:39:35.756Z,70.20
2022-09-16T17:42:02.628Z,70.80
2022-09-16T17:44:29.502Z,70.10
2022-09-16T17:46:56.339Z,70.80
2022-09-16T17:49:23.925Z,70.80
2022-09-16T17:51:51.165Z,70.70
2022-09-16T17:54:18.169Z,69.50
2022-09-16T17:56:45.608Z,69.20
2022-09-16T17:59:12.850Z,69.20
2022-09-16T18:01:39.749Z,68.30
2022-09-16T18:04:07.228Z,67.90
2022-09-16T18:06:35.969Z,67.70
2022-09-16T18:09:04.153Z,67.70
2022-09-16T18:11:31.066Z,68.60
2022-09-16T18:13:58.986Z,68.60
2022-09-16T18:16:25.959Z,69.10
2022-09-16T18:18:53.630Z,68.60
2022-09-16T18:21:22.957Z,69.50
2022-09-16T18:23:52.732Z,68.20
2022-09-16T18:26:19.653Z,68.10
2022-09-16T18:29:08.554Z,67.50
2022-09-16T18:31:35.036Z,67.00
2022-09-16T18:34:02.085Z,66.70
2022-09-16T18:36:30.479Z,66.70
2022-09-16T18:38:57.757Z,67.50
2022-09-16T18:41:31.512Z,67.40
2022-09-16T18:43:59.707Z,67.40
2022-09-16T18:46:27.705Z,67.30
2022-09-16T18:48:54.753Z,67.50
2022-09-16T18:51:32.054Z,67.60
2022-09-16T18:54:02.610Z,67.40
2022-09-16T18:56:30.255Z,67.20
2022-09-16T18:59:20.552Z,66.70
2022-09-16T19:01:51.023Z,66.70
2022-09-16T19:04:19.094Z,67.20
2022-09-16T19:06:47.051Z,66.30
2022-09-16T19:09:15.519Z,67.60
2022-09-16T19:11:42.930Z,68.90
2022-09-16T19:14:10.228Z,70.40
2022-09-16T19:16:37.331Z,70.90
2022-09-16T19:19:05.796Z,70.60
2022-09-16T19:21:32.902Z,70.30
2022-09-16T19:24:00.596Z,70.10
2022-09-16T19:26:29.055Z,68.80
2022-09-16T19:28:56.334Z,69.00
2022-09-16T19:31:23.221Z,69.00
2022-09-16T19:33:52.544Z,68.70
2022-09-16T19:36:20.457Z,68.50
2022-09-16T19:38:47.529Z,68.40
2022-09-16T19:41:14.895Z,68.30
2022-09-16T19:43:41.758Z,68.70
2022-09-16T19:46:09.692Z,68.50
2022-09-16T19:48:37.554Z,68.30
2022-09-16T19:51:08.429Z,68.20
2022-09-16T19:53:35.714Z,68.10
2022-09-16T19:56:06.241Z,68.40
2022-09-16T19:58:33.867Z,69.00
2022-09-16T20:01:01.037Z,68.80
2022-09-16T20:03:31.129Z,69.60
2022-09-16T20:06:04.095Z,70.30
2022-09-16T20:08:31.356Z,70.60
2022-09-16T20:11:02.127Z,70.60
2022-09-16T20:13:29.799Z,70.70
2022-09-16T20:15:57.840Z,70.60
2022-09-16T20:18:24.882Z,70.70
2022-09-16T20:20:51.849Z,71.30
2022-09-16T20:23:18.843Z,70.60
2022-09-16T20:25:53.946Z,70.50
2022-09-16T20:28:20.863Z,70.80
2022-09-16T20:30:47.742Z,71.30
2022-09-16T20:33:14.681Z,71.50
2022-09-16T20:35:41.521Z,71.60
2022-09-16T20:38:08.419Z,70.70
2022-09-16T20:40:35.396Z,70.20
2022-09-16T20:43:02.618Z,69.70
2022-09-16T20:45:29.659Z,70.00
2022-09-16T20:47:56.634Z,70.00
2022-09-16T20:50:23.669Z,69.90
2022-09-16T20:52:50.745Z,70.20
2022-09-16T20:55:17.627Z,70.30
2022-09-16T20:57:44.534Z,70.20
2022-09-16T21:00:11.930Z,70.80
2022-09-16T21:02:39.025Z,71.10
2022-09-16T21:05:06.414Z,71.60
2022-09-16T21:07:33.355Z,71.50
2022-09-16T21:10:00.318Z,70.80
2022-09-16T21:12:27.436Z,71.50
2022-09-16T21:14:54.525Z,72.40
2022-09-16T21:17:22.853Z,73.30
2022-09-16T21:19:50.570Z,73.00
2022-09-16T21:22:17.804Z,72.80
2022-09-16T21:24:44.863Z,72.80
2022-09-16T21:27:11.894Z,72.60
2022-09-16T21:29:38.813Z,72.30
2022-09-16T21:32:05.789Z,72.90
2022-09-16T21:34:32.743Z,73.20
2022-09-16T21:36:59.824Z,73.10
2022-09-16T21:39:26.876Z,72.40
2022-09-16T21:41:53.781Z,72.50
2022-09-16T21:44:20.725Z,72.60
2022-09-16T21:46:47.964Z,73.00
2022-09-16T21:49:22.647Z,73.40
2022-09-16T21:51:50.495Z,73.60
2022-09-16T21:54:20.170Z,73.50
2022-09-16T21:56:47.671Z,73.30
2022-09-16T21:59:14.575Z,73.20
2022-09-16T22:01:41.517Z,73.10
2022-09-16T22:04:12.395Z,72.60
2022-09-16T22:06:39.618Z,72.10
2022-09-16T22:09:08.040Z,71.80
2022-09-16T22:11:35.386Z,72.10
2022-09-16T22:14:02.556Z,71.90
2022-09-16T22:16:30.160Z,72.00
2022-09-16T22:18:58.131Z,72.90
2022-09-16T22:21:25.737Z,72.50
2022-09-16T22:23:52.660Z,73.00
2022-09-16T22:26:19.987Z,73.00
2022-09-16T22:28:46.835Z,73.00
2022-09-16T22:31:15.888Z,73.20
2022-09-16T22:33:43.068Z,72.80
2022-09-16T22:36:12.865Z,72.40
2022-09-16T22:38:39.950Z,72.20
2022-09-16T22:41:07.594Z,71.80
2022-09-16T22:43:37.728Z,71.90
2022-09-16T22:46:08.795Z,72.00
2022-09-16T22:48:35.736Z,72.20
2022-09-16T22:51:02.801Z,72.50
2022-09-16T22:53:29.972Z,73.00
2022-09-16T22:56:03.844Z,73.60
2022-09-16T22:58:31.772Z,73.80
2022-09-16T23:01:05.708Z,73.80
2022-09-16T23:03:32.701Z,73.70
2022-09-16T23:06:00.332Z,73.90
2022-09-16T23:08:27.569Z,74.10
2022-09-16T23:10:54.798Z,73.90
2022-09-16T23:13:22.000Z,74.00
2022-09-16T23:15:54.114Z,74.20
2022-09-16T23:18:21.312Z,74.30
2022-09-16T23:21:02.039Z,74.10
2022-09-16T23:23:29.325Z,74.60
2022-09-16T23:25:56.371Z,74.20
2022-09-16T23:28:23.389Z,74.80
2022-09-16T23:30:50.505Z,75.30
2022-09-16T23:33:17.527Z,75.50
2022-09-16T23:35:50.786Z,75.60
2022-09-16T23:38:17.834Z,75.60
2022-09-16T23:40:44.718Z,75.70
2022-09-16T23:43:11.601Z,76.40
2022-09-16T23:45:38.656Z,76.40
2022-09-16T23:48:05.792Z,76.50
2022-09-16T23:50:32.759Z,76.20
2022-09-16T23:52:59.580Z,75.90
2022-09-16T23:55:26.920Z,76.00
2022-09-16T23:57:54.003Z,75.90
